Weather at Unknown Airport

Public forecast

Using degrees Celsius for public forecast. Weather courtesy of forecast.io.

Closest aviation weather report (METAR) to Unknown Airport

Closest report is Hang Nadim International Airport, 116.2 nm (215.3 km) NNE.

2024/07/21 06:00 (retrieved 44 minutes ago)

WIDD 210600Z 17011KT 9999 SCT014 33/24 Q1012 NOSIG

Closest aviation forecast (TAF) to Unknown Airport

Closest forecast is Hang Nadim International Airport, 116.2 nm (215.3 km) NNE.

2024/07/21 06:00 (retrieved 44 minutes ago)

TAF WIDD 210500Z 2106/2206 18011KT 9000 SCT014